createdAt,value
2023-03-10T09:31:58.511Z,140997.81
2023-03-10T09:37:01.920Z,141085.19
2023-03-10T09:42:25.988Z,141144.28
2023-03-10T09:47:44.472Z,141085.19
2023-03-10T09:52:48.520Z,141186.13
2023-03-10T09:57:53.318Z,141250.13
2023-03-10T10:03:02.441Z,141160.25
2023-03-10T10:08:12.466Z,141088.94
2023-03-10T10:13:17.411Z,141187.34
2023-03-10T10:18:26.766Z,141168.84
2023-03-10T10:23:34.587Z,141112.28
2023-03-10T10:28:50.734Z,141037.22
2023-03-10T10:33:57.310Z,141133.16
2023-03-10T10:39:00.899Z,141083.97
2023-03-10T10:44:08.466Z,141128.25
2023-03-10T10:49:23.659Z,141051.97
2023-03-10T10:54:33.314Z,141192.25
2023-03-10T10:59:36.923Z,141402.94
2023-03-10T11:04:46.464Z,141586.53
2023-03-10T11:09:49.882Z,141628.50
2023-03-10T11:15:01.902Z,141754.31
2023-03-10T11:20:15.029Z,141834.56
2023-03-10T11:25:22.769Z,141834.56
2023-03-10T11:30:30.239Z,141856.78
2023-03-10T11:35:38.093Z,141977.75
2023-03-10T11:40:44.202Z,141940.75
2023-03-10T11:45:52.548Z,141997.50
2023-03-10T11:50:59.398Z,142054.34
2023-03-10T11:56:03.729Z,142109.94
2023-03-10T12:01:08.608Z,142137.13
2023-03-10T12:06:15.672Z,142215.00
2023-03-10T12:11:20.586Z,142207.56
2023-03-10T12:16:25.416Z,142144.53
2023-03-10T12:21:31.150Z,142064.19
2023-03-10T12:26:55.439Z,142055.56
2023-03-10T12:31:59.006Z,141934.59
2023-03-10T12:37:08.764Z,141827.16
2023-03-10T12:42:41.300Z,141669.19
2023-03-10T12:48:01.570Z,141601.38
2023-03-10T12:53:18.384Z,141622.34
2023-03-10T12:58:25.341Z,141644.50
2023-03-10T13:03:33.328Z,141674.13
2023-03-10T13:08:45.215Z,141654.41
2023-03-10T13:13:52.074Z,141739.53
2023-03-10T13:18:55.813Z,141565.63
2023-03-10T13:24:01.588Z,141511.34
2023-03-10T13:29:05.066Z,141508.91
2023-03-10T13:34:19.977Z,141383.19
2023-03-10T13:39:27.986Z,141292.03
2023-03-10T13:44:33.995Z,141328.97
2023-03-10T13:49:37.689Z,141398.00
2023-03-10T13:54:43.243Z,141340.09
2023-03-10T13:59:47.869Z,141327.75
2023-03-10T14:04:52.336Z,141349.94
2023-03-10T14:10:16.376Z,141255.09
2023-03-10T14:15:24.017Z,141239.06
2023-03-10T14:20:28.632Z,141221.81
2023-03-10T14:25:34.148Z,141221.81
2023-03-10T14:30:38.811Z,141205.84
2023-03-10T14:35:46.006Z,141086.47
2023-03-10T14:40:55.662Z,141033.53
2023-03-10T14:46:01.113Z,140944.91
2023-03-10T14:51:06.771Z,140984.31
2023-03-10T14:56:14.525Z,141007.69
2023-03-10T15:01:19.335Z,140979.41
2023-03-10T15:06:24.984Z,140986.78
2023-03-10T15:11:37.845Z,140984.31
2023-03-10T15:16:41.261Z,141010.16
2023-03-10T15:21:44.768Z,140957.25
2023-03-10T15:26:53.929Z,140893.28
2023-03-10T15:31:57.994Z,140949.88
2023-03-10T15:37:01.496Z,140917.91
2023-03-10T15:42:06.360Z,140888.34
2023-03-10T15:47:13.514Z,140840.41
2023-03-10T15:52:16.810Z,140826.84
2023-03-10T15:57:21.606Z,140798.56
2023-03-10T16:02:24.978Z,140794.91
2023-03-10T16:07:28.344Z,140764.22
2023-03-10T16:12:35.922Z,140775.25
2023-03-10T16:17:39.197Z,140749.44
2023-03-10T16:22:43.118Z,140738.41
2023-03-10T16:27:48.033Z,140699.09
2023-03-10T16:32:51.558Z,140699.09
2023-03-10T16:37:54.946Z,140630.25
2023-03-10T16:43:00.185Z,140577.41
2023-03-10T16:48:03.424Z,140543.03
2023-03-10T16:53:06.780Z,140577.41
2023-03-10T16:58:11.644Z,140543.03
2023-03-10T17:03:15.103Z,140524.59
2023-03-10T17:08:18.780Z,140551.63
2023-03-10T17:13:23.833Z,140516.03
2023-03-10T17:18:27.681Z,140476.78
2023-03-10T17:23:31.085Z,140430.13
2023-03-10T17:28:36.053Z,140433.81
2023-03-10T17:33:39.540Z,140411.69
2023-03-10T17:38:43.322Z,140395.75
2023-03-10T17:43:58.715Z,140367.53
2023-03-10T17:49:02.647Z,140383.47
2023-03-10T17:54:06.624Z,140398.22
2023-03-10T17:59:12.659Z,140372.44
2023-03-10T18:04:16.218Z,140384.69
2023-03-10T18:09:19.599Z,140401.88
2023-03-10T18:14:24.472Z,140393.31
2023-03-10T18:19:27.741Z,140377.34
2023-03-10T18:24:31.125Z,140354.00
2023-03-10T18:29:35.770Z,140379.78
2023-03-10T18:34:39.030Z,140358.97
2023-03-10T18:39:42.294Z,140329.47
2023-03-10T18:44:48.225Z,140357.69
2023-03-10T18:49:51.479Z,140356.47
2023-03-10T18:54:54.734Z,140355.25
2023-03-10T19:45:07.413Z,140336.88
2023-03-10T19:50:13.780Z,140327.00
2023-03-10T19:55:19.517Z,140312.31
2023-03-10T20:00:27.582Z,140290.22
2023-03-10T20:05:31.049Z,140335.63
2023-03-10T20:10:34.355Z,140344.22
2023-03-10T20:15:39.228Z,140361.41
2023-03-10T20:20:42.627Z,140304.97
2023-03-10T20:25:48.369Z,140311.09
2023-03-10T20:30:53.130Z,140319.66
2023-03-10T20:35:56.618Z,140320.88
2023-03-10T20:40:59.953Z,140316.00
2023-03-10T20:46:05.008Z,140281.66
2023-03-10T20:51:08.415Z,140302.47
2023-03-10T20:56:12.285Z,140263.22
2023-03-10T21:01:18.711Z,140297.56
2023-03-10T21:06:22.243Z,140268.13
2023-03-10T21:11:25.565Z,140246.03
2023-03-10T21:16:30.569Z,140260.78
2023-03-10T21:21:34.524Z,140248.53
2023-03-10T21:26:37.886Z,140242.34
2023-03-10T21:31:44.905Z,140258.31
2023-03-10T21:36:48.624Z,140264.44
2023-03-10T21:41:52.306Z,140250.97
2023-03-10T21:46:56.959Z,140139.41
2023-03-10T21:52:03.358Z,140246.03
2023-03-10T21:57:07.307Z,140252.19
2023-03-10T22:02:19.557Z,140280.41
2023-03-10T22:07:22.905Z,140277.97
2023-03-10T22:12:26.304Z,140275.53
2023-03-10T22:17:31.023Z,140244.81
2023-03-10T22:22:34.386Z,140231.34
2023-03-10T22:27:40.068Z,140205.56
2023-03-10T22:32:44.829Z,140188.44
2023-03-10T22:37:48.252Z,140165.19
2023-03-10T22:42:51.565Z,140167.63
